^^
Datos históricos de la estación: Murcia-Puente Tocinos
Diario Informe para Agosto 23, 2019 Unidades:  Ambas    Ingés   Métrico
Diario Semanal Mensual Anual
  Máxima: Mínima: Promedio:
Temperatura: 67.8 °F /  19.9 °C 51.6 °F /  10.9 °C 58.5 °F /  14.7 °C
Punto de rocio: 52.9 °F /  11.6 °C 43.2 °F /  6.2 °C 48.7 °F /  9.3 °C
Humedad: 93% 41.6% 73%
Velocidad viento: 9.7mph /  15.6km/h - 3.7mph /  6km/h
Racha viento: 19mph /  30.6km/h - -
Viento- - SSO
Presión: 29.9 in /  1010.8 hPa 29.7 in /  1005.9 hPa -
Precipitación: 0 in /  0.0 mm    
 
 
Tabla de datos para Agosto 23, 2019
Hora Temperatura Punto de rocio Presión Viento Velocidad viento Racha viento Humedad Intensidad lluvia(por hora) Nubes
00:04 56.1 °F /  13.4 °C 52.9 °F /  11.6 °C 29.7in /  1007.1hPa SO 5.3mph /  8.5km/h 8.5mph /  13.7km/h 88.8% 0in /  0.0mm
00:09 56.1 °F /  13.4 °C 52.7 °F /  11.5 °C 29.7in /  1007.1hPa SO 5.2mph /  8.4km/h 9mph /  14.5km/h 88% 0in /  0.0mm
00:14 56.3 °F /  13.5 °C 52.9 °F /  11.6 °C 29.7in /  1006.9hPa SO 5.2mph /  8.4km/h 11.2mph /  18km/h 88% 0in /  0.0mm
00:19 56.5 °F /  13.6 °C 52.9 °F /  11.6 °C 29.7in /  1006.9hPa SO 5.2mph /  8.4km/h 12mph /  19.3km/h 88% 0in /  0.0mm
00:24 56.5 °F /  13.6 °C 52.9 °F /  11.6 °C 29.7in /  1006.9hPa SO 5.7mph /  9.1km/h 10.2mph /  16.4km/h 88% 0in /  0.0mm
00:29 56.3 °F /  13.5 °C 52.9 °F /  11.6 °C 29.7in /  1006.7hPa SO 5.9mph /  9.5km/h 10.4mph /  16.7km/h 88% 0in /  0.0mm
00:34 56.3 °F /  13.5 °C 52.9 °F /  11.6 °C 29.7in /  1006.7hPa SO 6.1mph /  9.8km/h 10mph /  16.1km/h 88% 0in /  0.0mm
00:39 56.3 °F /  13.5 °C 52.7 °F /  11.5 °C 29.7in /  1006.7hPa SO 6.2mph /  10km/h 9.2mph /  14.8km/h 88% 0in /  0.0mm
00:44 56.3 °F /  13.5 °C 52.7 °F /  11.5 °C 29.7in /  1006.6hPa SSO 5.7mph /  9.1km/h 9mph /  14.5km/h 88% 0in /  0.0mm
00:49 56.1 °F /  13.4 °C 52.5 °F /  11.4 °C 29.7in /  1006.6hPa SSO 5.4mph /  8.7km/h 13.8mph /  22.2km/h 88% 0in /  0.0mm
00:54 56.1 °F /  13.4 °C 52.5 °F /  11.4 °C 29.7in /  1006.6hPa SSO 6mph /  9.6km/h 14mph /  22.5km/h 88% 0in /  0.0mm
00:59 56.1 °F /  13.4 °C 52.5 °F /  11.4 °C 29.7in /  1006.6hPa SSO 6.2mph /  10km/h 10mph /  16.1km/h 88% 0in /  0.0mm
01:04 56.1 °F /  13.4 °C 52.5 °F /  11.4 °C 29.7in /  1006.6hPa SSO 5.2mph /  8.3km/h 8mph /  12.9km/h 88% 0in /  0.0mm
01:09 55.9 °F /  13.3 °C 52.3 °F /  11.3 °C 29.7in /  1006.6hPa SO 4.7mph /  7.6km/h 7mph /  11.3km/h 88% 0in /  0.0mm
01:14 55.9 °F /  13.3 °C 52.3 °F /  11.3 °C 29.7in /  1006.6hPa OSO 4mph /  6.4km/h 5.8mph /  9.3km/h 88% 0in /  0.0mm
01:19 55.9 °F /  13.3 °C 52.7 °F /  11.5 °C 29.7in /  1006.6hPa OSO 3.6mph /  5.8km/h 6.2mph /  10km/h 88.9% 0in /  0.0mm
01:24 55.8 °F /  13.2 °C 52.5 °F /  11.4 °C 29.7in /  1006.7hPa OSO 3.6mph /  5.8km/h 6mph /  9.7km/h 89% 0in /  0.0mm
01:29 55.8 °F /  13.2 °C 52.5 °F /  11.4 °C 29.7in /  1006.7hPa SO 3.6mph /  5.8km/h 5.2mph /  8.4km/h 89% 0in /  0.0mm
01:34 55.6 °F /  13.1 °C 52.5 °F /  11.4 °C 29.7in /  1006.7hPa OSO 2.8mph /  4.5km/h 5mph /  8km/h 89.5% 0in /  0.0mm
01:39 55.6 °F /  13.1 °C 52.7 °F /  11.5 °C 29.7in /  1006.7hPa OSO 2.4mph /  3.9km/h 4.6mph /  7.4km/h 90% 0in /  0.0mm
01:44 55.6 °F /  13.1 °C 52.7 °F /  11.5 °C 29.7in /  1006.7hPa OSO 2.1mph /  3.4km/h 5mph /  8km/h 90% 0in /  0.0mm
01:49 55.4 °F /  13 °C 52.5 °F /  11.4 °C 29.7in /  1006.7hPa SO 2mph /  3.2km/h 5.9mph /  9.5km/h 90% 0in /  0.0mm
01:54 55.4 °F /  13 °C 52.7 °F /  11.5 °C 29.7in /  1006.7hPa SSO 2.7mph /  4.4km/h 6mph /  9.7km/h 90.7% 0in /  0.0mm
01:59 55.2 °F /  12.9 °C 52.7 °F /  11.5 °C 29.7in /  1006.5hPa SSO 3.1mph /  5km/h 6mph /  9.7km/h 91% 0in /  0.0mm
02:04 55.2 °F /  12.9 °C 52.7 °F /  11.5 °C 29.7in /  1006.5hPa Sur 3.5mph /  5.6km/h 6mph /  9.7km/h 91% 0in /  0.0mm
02:09 55.2 °F /  12.9 °C 52.5 °F /  11.4 °C 29.7in /  1006.6hPa Sur 3.6mph /  5.8km/h 5.2mph /  8.4km/h 91% 0in /  0.0mm
02:14 55.2 °F /  12.9 °C 52.5 °F /  11.4 °C 29.7in /  1006.6hPa SSO 3.3mph /  5.3km/h 5.8mph /  9.3km/h 91% 0in /  0.0mm
02:19 55 °F /  12.8 °C 52.5 °F /  11.4 °C 29.7in /  1006.6hPa SO 3.1mph /  5km/h 6.2mph /  10km/h 91% 0in /  0.0mm
02:24 55 °F /  12.8 °C 52.5 °F /  11.4 °C 29.7in /  1006.6hPa OSO 3.4mph /  5.5km/h 6mph /  9.7km/h 91% 0in /  0.0mm
02:29 54.9 °F /  12.7 °C 52.3 °F /  11.3 °C 29.7in /  1006.5hPa SO 3.6mph /  5.8km/h 6mph /  9.7km/h 91% 0in /  0.0mm
02:34 54.9 °F /  12.7 °C 52.3 °F /  11.3 °C 29.7in /  1006.5hPa SO 3.6mph /  5.8km/h 6mph /  9.7km/h 91.2% 0in /  0.0mm
02:39 54.9 °F /  12.7 °C 52.5 °F /  11.4 °C 29.7in /  1006.5hPa SO 3.6mph /  5.8km/h 6.9mph /  11.1km/h 92% 0in /  0.0mm
02:44 54.9 °F /  12.7 °C 52.5 °F /  11.4 °C 29.7in /  1006.3hPa SSO 4mph /  6.5km/h 7mph /  11.3km/h 92% 0in /  0.0mm
02:49 54.9 °F /  12.7 °C 52.5 °F /  11.4 °C 29.7in /  1006.3hPa SO 4.3mph /  6.9km/h 6mph /  9.7km/h 92% 0in /  0.0mm
02:54 54.7 °F /  12.6 °C 52.3 °F /  11.3 °C 29.7in /  1006.3hPa OSO 3.5mph /  5.6km/h 5.9mph /  9.5km/h 92% 0in /  0.0mm
02:59 54.5 °F /  12.5 °C 52.3 °F /  11.3 °C 29.7in /  1006.3hPa OSO 3.1mph /  5km/h 6.9mph /  11.1km/h 92% 0in /  0.0mm
03:04 54.3 °F /  12.4 °C 52 °F /  11.1 °C 29.7in /  1006.3hPa OSO 3.5mph /  5.6km/h 7mph /  11.3km/h 92% 0in /  0.0mm
03:09 54.1 °F /  12.3 °C 52 °F /  11.1 °C 29.7in /  1006.3hPa OSO 3.6mph /  5.8km/h 6mph /  9.7km/h 92% 0in /  0.0mm
03:14 54.1 °F /  12.3 °C 51.8 °F /  11 °C 29.7in /  1006.1hPa OSO 3.3mph /  5.3km/h 6mph /  9.7km/h 92% 0in /  0.0mm
03:19 54 °F /  12.2 °C 51.6 °F /  10.9 °C 29.7in /  1006.1hPa Oeste 3.1mph /  5km/h 5.9mph /  9.5km/h 92% 0in /  0.0mm
03:24 53.8 °F /  12.1 °C 51.4 °F /  10.8 °C 29.7in /  1006.1hPa OSO 3.1mph /  5km/h 6.9mph /  11.1km/h 91.8% 0in /  0.0mm
03:29 53.4 °F /  11.9 °C 51.3 °F /  10.7 °C 29.7in /  1006.1hPa OSO 3.1mph /  5km/h 8.1mph /  13km/h 92% 0in /  0.0mm
03:34 53.2 °F /  11.8 °C 51.1 °F /  10.6 °C 29.7in /  1006.1hPa OSO 3.9mph /  6.3km/h 8mph /  12.9km/h 92% 0in /  0.0mm
03:39 53.2 °F /  11.8 °C 51.1 °F /  10.6 °C 29.7in /  1006.1hPa SO 4.3mph /  6.9km/h 7mph /  11.3km/h 92% 0in /  0.0mm
03:44 53.2 °F /  11.8 °C 51.1 °F /  10.6 °C 29.7in /  1005.9hPa SSO 3.9mph /  6.2km/h 6mph /  9.7km/h 92% 0in /  0.0mm
03:49 53.2 °F /  11.8 °C 51.1 °F /  10.6 °C 29.7in /  1005.9hPa SSO 3.6mph /  5.8km/h 5mph /  8km/h 92% 0in /  0.0mm
03:54 53.2 °F /  11.8 °C 51.1 °F /  10.6 °C 29.7in /  1005.9hPa SSO 3.1mph /  5km/h 5mph /  8km/h 92% 0in /  0.0mm
03:59 53.2 °F /  11.8 °C 51.1 °F /  10.6 °C 29.7in /  1005.9hPa SSO 2.9mph /  4.7km/h 5mph /  8km/h 92% 0in /  0.0mm
04:04 53.1 °F /  11.7 °C 50.9 °F /  10.5 °C 29.7in /  1005.9hPa SSO 1.8mph /  2.9km/h 2mph /  3.2km/h 92% 0in /  0.0mm
04:09 53.1 °F /  11.7 °C 50.7 °F /  10.4 °C 29.7in /  1005.9hPa SSO 1.4mph /  2.2km/h 1mph /  1.6km/h 92% 0in /  0.0mm
04:14 52.9 °F /  11.6 °C 50.5 °F /  10.3 °C 29.7in /  1005.9hPa SSO 0.5mph /  0.8km/h 4.6mph /  7.4km/h 92% 0in /  0.0mm
04:19 52.7 °F /  11.5 °C 50.4 °F /  10.2 °C 29.7in /  1005.9hPa Calm   5mph /  8km/h 92% 0in /  0.0mm
04:24 52.5 °F /  11.4 °C 50.4 °F /  10.2 °C 29.7in /  1006.0hPa SE 1.9mph /  3.1km/h 7.4mph /  11.9km/h 92% 0in /  0.0mm
04:29 52.3 °F /  11.3 °C 50.2 °F /  10.1 °C 29.7in /  1006.0hPa SSE 2.9mph /  4.7km/h 8.1mph /  13km/h 92% 0in /  0.0mm
04:34 52.2 °F /  11.2 °C 50.2 °F /  10.1 °C 29.7in /  1006.0hPa SSE 4.8mph /  7.8km/h 9.7mph /  15.6km/h 93% 0in /  0.0mm
04:39 52 °F /  11.1 °C 50 °F /  10 °C 29.7in /  1006.2hPa Sur 5.9mph /  9.5km/h 10mph /  16.1km/h 93% 0in /  0.0mm
04:44 51.8 °F /  11 °C 49.8 °F /  9.9 °C 29.7in /  1006.2hPa SSE 6.2mph /  10km/h 10.7mph /  17.2km/h 93% 0in /  0.0mm
04:49 51.6 °F /  10.9 °C 49.8 °F /  9.9 °C 29.7in /  1006.2hPa SSE 6.4mph /  10.3km/h 11mph /  17.7km/h 93% 0in /  0.0mm
04:54 51.8 °F /  11 °C 49.8 °F /  9.9 °C 29.7in /  1006.6hPa Sur 6.4mph /  10.3km/h 10mph /  16.1km/h 93% 0in /  0.0mm
04:59 52 °F /  11.1 °C 50 °F /  10 °C 29.7in /  1006.6hPa Sur 6.4mph /  10.3km/h 9.2mph /  14.8km/h 93% 0in /  0.0mm
05:04 52.2 °F /  11.2 °C 50.2 °F /  10.1 °C 29.7in /  1006.6hPa SSO 5.6mph /  9km/h 8mph /  12.9km/h 93% 0in /  0.0mm
05:09 52.2 °F /  11.2 °C 50.2 °F /  10.1 °C 29.7in /  1006.6hPa SSO 5.2mph /  8.4km/h 6mph /  9.7km/h 93% 0in /  0.0mm
05:14 52.3 °F /  11.3 °C 50.4 °F /  10.2 °C 29.7in /  1006.6hPa SO 3.7mph /  6km/h 5mph /  8km/h 93% 0in /  0.0mm
05:19 52.3 °F /  11.3 °C 50.2 °F /  10.1 °C 29.7in /  1006.6hPa OSO 2.9mph /  4.7km/h 5mph /  8km/h 92.2% 0in /  0.0mm
05:24 52.3 °F /  11.3 °C 50.2 °F /  10.1 °C 29.7in /  1006.7hPa OSO 2.9mph /  4.7km/h 5mph /  8km/h 92% 0in /  0.0mm
05:29 52.3 °F /  11.3 °C 50.2 °F /  10.1 °C 29.7in /  1006.7hPa Oeste 2.9mph /  4.7km/h 5mph /  8km/h 92% 0in /  0.0mm
05:34 52.3 °F /  11.3 °C 50.2 °F /  10.1 °C 29.7in /  1006.7hPa OSO 2.9mph /  4.7km/h 5.2mph /  8.4km/h 92% 0in /  0.0mm
05:39 52.3 °F /  11.3 °C 50 °F /  10 °C 29.7in /  1006.7hPa SO 2.9mph /  4.7km/h 5.2mph /  8.4km/h 92% 0in /  0.0mm
05:44 52.2 °F /  11.2 °C 49.8 °F /  9.9 °C 29.7in /  1006.6hPa Oeste 3mph /  4.9km/h 5mph /  8km/h 92% 0in /  0.0mm
05:49 52.2 °F /  11.2 °C 49.8 °F /  9.9 °C 29.7in /  1006.6hPa Oeste 3.1mph /  5km/h 5mph /  8km/h 92% 0in /  0.0mm
05:54 52.2 °F /  11.2 °C 49.8 °F /  9.9 °C 29.7in /  1006.7hPa Oeste 2.2mph /  3.6km/h 4mph /  6.4km/h 92% 0in /  0.0mm
05:59 52 °F /  11.1 °C 49.5 °F /  9.7 °C 29.7in /  1006.7hPa Oeste 1.8mph /  2.9km/h 3mph /  4.8km/h 91.1% 0in /  0.0mm
06:04 52 °F /  11.1 °C 49.5 °F /  9.7 °C 29.7in /  1006.7hPa Oeste 0.6mph /  0.9km/h   91% 0in /  0.0mm
06:09 52 °F /  11.1 °C 49.5 °F /  9.7 °C 29.7in /  1006.8hPa Calm   4.7mph /  7.6km/h 91% 0in /  0.0mm
06:14 52.2 °F /  11.2 °C 49.8 °F /  9.9 °C 29.7in /  1006.8hPa SSO 1.4mph /  2.2km/h 5mph /  8km/h 91.8% 0in /  0.0mm
06:19 52.2 °F /  11.2 °C 49.8 °F /  9.9 °C 29.7in /  1006.8hPa SSO 2mph /  3.2km/h 5.4mph /  8.7km/h 92% 0in /  0.0mm
06:24 52 °F /  11.1 °C 49.5 °F /  9.7 °C 29.7in /  1007.0hPa SSE 2.6mph /  4.2km/h 6mph /  9.7km/h 91% 0in /  0.0mm
06:29 52 °F /  11.1 °C 49.5 °F /  9.7 °C 29.7in /  1007.0hPa SSE 2.9mph /  4.7km/h 6mph /  9.7km/h 91% 0in /  0.0mm
06:34 52 °F /  11.1 °C 49.3 °F /  9.6 °C 29.7in /  1007.0hPa SSE 2.9mph /  4.7km/h 6.9mph /  11.1km/h 91% 0in /  0.0mm
06:39 51.6 °F /  10.9 °C 49.3 °F /  9.6 °C 29.7in /  1007.0hPa Sur 2.9mph /  4.7km/h 7mph /  11.3km/h 91.5% 0in /  0.0mm
06:44 51.6 °F /  10.9 °C 49.5 °F /  9.7 °C 29.7in /  1007.0hPa SO 3.6mph /  5.8km/h 7mph /  11.3km/h 92% 0in /  0.0mm
06:49 51.6 °F /  10.9 °C 49.5 °F /  9.7 °C 29.7in /  1007.0hPa SO 4mph /  6.5km/h 5mph /  8km/h 92% 0in /  0.0mm
06:54 51.8 °F /  11 °C 49.5 °F /  9.7 °C 29.7in /  1007.0hPa SO 3mph /  4.8km/h 5.2mph /  8.4km/h 92% 0in /  0.0mm
06:59 51.8 °F /  11 °C 49.5 °F /  9.7 °C 29.7in /  1006.9hPa SO 2.4mph /  3.9km/h 5mph /  8km/h 91.5% 0in /  0.0mm
07:04 52 °F /  11.1 °C 49.5 °F /  9.7 °C 29.7in /  1006.9hPa OSO 2.7mph /  4.4km/h 5.4mph /  8.7km/h 91% 0in /  0.0mm
07:09 52 °F /  11.1 °C 49.5 °F /  9.7 °C 29.7in /  1006.9hPa SO 2.9mph /  4.6km/h 6mph /  9.7km/h 90.8% 0in /  0.0mm
07:14 52.2 °F /  11.2 °C 49.3 °F /  9.6 °C 29.7in /  1006.7hPa Sur 2.9mph /  4.7km/h 5.9mph /  9.5km/h 90% 0in /  0.0mm
07:19 52.3 °F /  11.3 °C 49.5 °F /  9.7 °C 29.7in /  1006.7hPa Sur 2.9mph /  4.7km/h 6mph /  9.7km/h 90% 0in /  0.0mm
07:24 52.3 °F /  11.3 °C 49.5 °F /  9.7 °C 29.7in /  1006.7hPa Sur 3.4mph /  5.4km/h 6mph /  9.7km/h 90% 0in /  0.0mm
07:29 52.3 °F /  11.3 °C 49.5 °F /  9.7 °C 29.7in /  1006.6hPa Sur 3.6mph /  5.8km/h 6mph /  9.7km/h 90% 0in /  0.0mm
07:34 52.3 °F /  11.3 °C 49.5 °F /  9.7 °C 29.7in /  1006.6hPa SSE 3.9mph /  6.2km/h 7.6mph /  12.2km/h 90% 0in /  0.0mm
07:39 52.3 °F /  11.3 °C 49.5 °F /  9.7 °C 29.7in /  1006.7hPa SSE 4mph /  6.5km/h 8.5mph /  13.7km/h 90% 0in /  0.0mm
07:44 52.2 °F /  11.2 °C 49.3 °F /  9.6 °C 29.7in /  1006.7hPa Sur 5mph /  8km/h 9.2mph /  14.8km/h 90.2% 0in /  0.0mm
07:49 52.2 °F /  11.2 °C 49.6 °F /  9.8 °C 29.7in /  1006.7hPa SSO 5.4mph /  8.7km/h 9mph /  14.5km/h 91% 0in /  0.0mm
07:54 52.2 °F /  11.2 °C 49.6 °F /  9.8 °C 29.7in /  1006.7hPa SSO 5mph /  8km/h 7mph /  11.3km/h 91% 0in /  0.0mm
07:59 52.2 °F /  11.2 °C 49.5 °F /  9.7 °C 29.7in /  1006.7hPa SO 4.7mph /  7.6km/h 6.4mph /  10.3km/h 90.3% 0in /  0.0mm
08:04 52.2 °F /  11.2 °C 49.3 °F /  9.6 °C 29.7in /  1006.7hPa SO 4mph /  6.4km/h 7mph /  11.3km/h 90% 0in /  0.0mm
08:09 52.2 °F /  11.2 °C 49.5 °F /  9.7 °C 29.7in /  1006.7hPa SO 3.6mph /  5.8km/h 6mph /  9.7km/h 90% 0in /  0.0mm
08:14 52.3 °F /  11.3 °C 49.3 °F /  9.6 °C 29.7in /  1006.7hPa SO 2.1mph /  3.4km/h 3mph /  4.8km/h 89.7% 0in /  0.0mm
08:19 52.2 °F /  11.2 °C 49.1 °F /  9.5 °C 29.7in /  1006.7hPa SO 1.4mph /  2.2km/h   89% 0in /  0.0mm
08:24 52.2 °F /  11.2 °C 48.9 °F /  9.4 °C 29.7in /  1006.9hPa SO 0.4mph /  0.7km/h 4.7mph /  7.6km/h 89% 0in /  0.0mm
08:29 52.2 °F /  11.2 °C 48.7 °F /  9.3 °C 29.7in /  1006.9hPa Calm   5.2mph /  8.4km/h 88.1% 0in /  0.0mm
08:34 52.3 °F /  11.3 °C 48.7 °F /  9.3 °C 29.7in /  1006.9hPa Sur 1.6mph /  2.6km/h 5mph /  8km/h 88% 0in /  0.0mm
08:39 52.2 °F /  11.2 °C 48.9 °F /  9.4 °C 29.7in /  1007.1hPa Sur 2.4mph /  3.9km/h 3mph /  4.8km/h 88.8% 0in /  0.0mm
08:44 52.2 °F /  11.2 °C 48.9 °F /  9.4 °C 29.7in /  1007.1hPa Sur 0.8mph /  1.3km/h   89% 0in /  0.0mm
08:49 52 °F /  11.1 °C 48.9 °F /  9.4 °C 29.7in /  1007.1hPa Calm     89.2% 0in /  0.0mm
08:54 52 °F /  11.1 °C 49.1 °F /  9.5 °C 29.7in /  1007.1hPa Calm     90% 0in /  0.0mm
08:59 52 °F /  11.1 °C 49.1 °F /  9.5 °C 29.7in /  1007.1hPa Calm   3.5mph /  5.6km/h 90% 0in /  0.0mm
09:04 52 °F /  11.1 °C 49.1 °F /  9.5 °C 29.7in /  1007.1hPa North 1mph /  1.6km/h 3mph /  4.8km/h 90% 0in /  0.0mm
09:09 52 °F /  11.1 °C 49.1 °F /  9.5 °C 29.7in /  1007.3hPa North 1.4mph /  2.2km/h 2mph /  3.2km/h 90% 0in /  0.0mm
09:14 51.8 °F /  11 °C 49.1 °F /  9.5 °C 29.7in /  1007.3hPa North 0.5mph /  0.8km/h 4.6mph /  7.4km/h 90.2% 0in /  0.0mm
09:19 51.8 °F /  11 °C 49.3 °F /  9.6 °C 29.7in /  1007.3hPa Calm   5mph /  8km/h 91% 0in /  0.0mm
09:24 51.8 °F /  11 °C 49.3 °F /  9.6 °C 29.7in /  1007.3hPa NO 1.3mph /  2.1km/h 4mph /  6.4km/h 91% 0in /  0.0mm
09:29 52 °F /  11.1 °C 49.5 °F /  9.7 °C 29.7in /  1007.3hPa NO 2mph /  3.2km/h 4.3mph /  6.9km/h 91% 0in /  0.0mm
09:34 51.8 °F /  11 °C 49.3 °F /  9.6 °C 29.7in /  1007.3hPa NO 1.9mph /  3km/h 5.8mph /  9.3km/h 91% 0in /  0.0mm
09:39 51.6 °F /  10.9 °C 49.1 °F /  9.5 °C 29.8in /  1007.4hPa ONO 1.8mph /  2.9km/h 6mph /  9.7km/h 91% 0in /  0.0mm
09:44 51.6 °F /  10.9 °C 49.1 °F /  9.5 °C 29.8in /  1007.4hPa Oeste 2.7mph /  4.3km/h 6mph /  9.7km/h 91% 0in /  0.0mm
09:49 51.8 °F /  11 °C 49.3 °F /  9.6 °C 29.8in /  1007.4hPa ONO 3.1mph /  5km/h 6mph /  9.7km/h 91% 0in /  0.0mm
09:54 52 °F /  11.1 °C 49.5 °F /  9.7 °C 29.8in /  1007.8hPa ONO 3mph /  4.8km/h 5mph /  8km/h 91% 0in /  0.0mm
09:59 52.2 °F /  11.2 °C 49.5 °F /  9.7 °C 29.8in /  1007.8hPa Oeste 2.9mph /  4.7km/h 5.2mph /  8.4km/h 90.4% 0in /  0.0mm
10:04 52.3 °F /  11.3 °C 49.5 °F /  9.7 °C 29.8in /  1007.8hPa SE 2.5mph /  4.1km/h 6.2mph /  10km/h 90% 0in /  0.0mm
10:09 52.5 °F /  11.4 °C 49.8 °F /  9.9 °C 29.8in /  1008.1hPa ESE 2.4mph /  3.9km/h 6mph /  9.7km/h 90.3% 0in /  0.0mm
10:14 52.7 °F /  11.5 °C 49.8 °F /  9.9 °C 29.8in /  1008.1hPa ESE 2.9mph /  4.6km/h 5mph /  8km/h 90% 0in /  0.0mm
10:19 52.9 °F /  11.6 °C 50 °F /  10 °C 29.8in /  1008.1hPa ESE 3.1mph /  5km/h 5mph /  8km/h 90% 0in /  0.0mm
10:24 53.1 °F /  11.7 °C 50.4 °F /  10.2 °C 29.8in /  1008.2hPa ESE 2.4mph /  3.8km/h 4.7mph /  7.6km/h 90% 0in /  0.0mm
10:29 53.2 °F /  11.8 °C 50.2 °F /  10.1 °C 29.8in /  1008.2hPa SE 2mph /  3.2km/h 5mph /  8km/h 89.2% 0in /  0.0mm
10:34 53.4 °F /  11.9 °C 50.4 °F /  10.2 °C 29.8in /  1008.2hPa ESE 2mph /  3.2km/h 5mph /  8km/h 89% 0in /  0.0mm
10:39 53.4 °F /  11.9 °C 50.4 °F /  10.2 °C 29.8in /  1008.2hPa SE 2mph /  3.2km/h 3.6mph /  5.8km/h 89% 0in /  0.0mm
10:44 53.6 °F /  12 °C 50.4 °F /  10.2 °C 29.8in /  1008.2hPa SSE 2mph /  3.2km/h 4.6mph /  7.4km/h 88.8% 0in /  0.0mm
10:49 53.6 °F /  12 °C 50.2 °F /  10.1 °C 29.8in /  1008.2hPa Sur 2mph /  3.2km/h 5mph /  8km/h 88.1% 0in /  0.0mm
10:54 53.8 °F /  12.1 °C 50.4 °F /  10.2 °C 29.8in /  1008.2hPa SSE 2.6mph /  4.2km/h 5.2mph /  8.4km/h 88% 0in /  0.0mm
10:59 53.8 °F /  12.1 °C 50.2 °F /  10.1 °C 29.8in /  1008.2hPa SE 2.9mph /  4.7km/h 5mph /  8km/h 87.7% 0in /  0.0mm
11:04 54 °F /  12.2 °C 50.4 °F /  10.2 °C 29.8in /  1008.2hPa SE 2.9mph /  4.6km/h 5.2mph /  8.4km/h 87.8% 0in /  0.0mm
11:09 54.5 °F /  12.5 °C 50.5 °F /  10.3 °C 29.8in /  1008.2hPa SE 2.9mph /  4.7km/h 5.8mph /  9.3km/h 86.9% 0in /  0.0mm
11:14 55.2 °F /  12.9 °C 50.9 °F /  10.5 °C 29.8in /  1008.2hPa SE 3.4mph /  5.4km/h 6mph /  9.7km/h 85.6% 0in /  0.0mm
11:19 55.8 °F /  13.2 °C 50.7 °F /  10.4 °C 29.8in /  1008.2hPa SE 3.6mph /  5.8km/h 5mph /  8km/h 83.3% 0in /  0.0mm
11:24 56.3 °F /  13.5 °C 51.1 °F /  10.6 °C 29.8in /  1008.2hPa SE 2.5mph /  4.1km/h 5mph /  8km/h 82.6% 0in /  0.0mm
11:29 57 °F /  13.9 °C 51.1 °F /  10.6 °C 29.8in /  1008.1hPa SE 2mph /  3.2km/h 3mph /  4.8km/h 80.3% 0in /  0.0mm
11:34 57.7 °F /  14.3 °C 50.9 °F /  10.5 °C 29.8in /  1008.1hPa SE 1.6mph /  2.6km/h 3.5mph /  5.6km/h 78% 0in /  0.0mm
11:39 58.3 °F /  14.6 °C 50.7 °F /  10.4 °C 29.8in /  1008.1hPa OSO 1.4mph /  2.2km/h 4.6mph /  7.4km/h 76.3% 0in /  0.0mm
11:44 58.5 °F /  14.7 °C 50.7 °F /  10.4 °C 29.8in /  1008.1hPa OSO 1.7mph /  2.7km/h 5.9mph /  9.5km/h 75% 0in /  0.0mm
11:49 58.5 °F /  14.7 °C 50.4 °F /  10.2 °C 29.8in /  1008.1hPa OSO 1.8mph /  2.9km/h 6mph /  9.7km/h 74.5% 0in /  0.0mm
11:54 58.6 °F /  14.8 °C 50.7 °F /  10.4 °C 29.8in /  1008.1hPa Oeste 1.9mph /  3.1km/h 5mph /  8km/h 75% 0in /  0.0mm
11:59 58.6 °F /  14.8 °C 50 °F /  10 °C 29.8in /  1008.1hPa SO 2mph /  3.2km/h 6.9mph /  11.1km/h 73% 0in /  0.0mm
12:04 58.6 °F /  14.8 °C 49.3 °F /  9.6 °C 29.8in /  1008.1hPa Oeste 2.6mph /  4.2km/h 7mph /  11.3km/h 70.7% 0in /  0.0mm
12:09 58.8 °F /  14.9 °C 48.9 °F /  9.4 °C 29.8in /  1008.1hPa OSO 2.9mph /  4.7km/h 7mph /  11.3km/h 69.4% 0in /  0.0mm
12:14 59 °F /  15 °C 47.8 °F /  8.8 °C 29.8in /  1008.0hPa OSO 3mph /  4.9km/h 6mph /  9.7km/h 66.5% 0in /  0.0mm
12:19 59.4 °F /  15.2 °C 47.7 °F /  8.7 °C 29.8in /  1008.0hPa SO 3.1mph /  5km/h 5mph /  8km/h 65% 0in /  0.0mm
12:24 60.1 °F /  15.6 °C 48.2 °F /  9 °C 29.8in /  1008.0hPa SSO 2.2mph /  3.6km/h 5.2mph /  8.4km/h 64.7% 0in /  0.0mm
12:29 60.8 °F /  16 °C 48.6 °F /  9.2 °C 29.8in /  1007.9hPa SSE 1.8mph /  2.9km/h 5.8mph /  9.3km/h 64.1% 0in /  0.0mm
12:34 61.2 °F /  16.2 °C 48.6 °F /  9.2 °C 29.8in /  1007.9hPa Sur 2.7mph /  4.3km/h 6mph /  9.7km/h 63.3% 0in /  0.0mm
12:39 61.3 °F /  16.3 °C 48.6 °F /  9.2 °C 29.8in /  1007.9hPa SE 3.1mph /  5km/h 6mph /  9.7km/h 62.7% 0in /  0.0mm
12:44 61.5 °F /  16.4 °C 48.4 °F /  9.1 °C 29.8in /  1007.8hPa Sur 3.1mph /  5km/h 6mph /  9.7km/h 62.1% 0in /  0.0mm
12:49 61.7 °F /  16.5 °C 48.4 °F /  9.1 °C 29.8in /  1007.8hPa SE 3.1mph /  5km/h 6.2mph /  10km/h 61.4% 0in /  0.0mm
12:54 62.1 °F /  16.7 °C 48.4 °F /  9.1 °C 29.8in /  1007.8hPa ESE 3.1mph /  5km/h 6.9mph /  11.1km/h 61% 0in /  0.0mm
12:59 62.2 °F /  16.8 °C 48 °F /  8.9 °C 29.8in /  1007.6hPa Sur 3.1mph /  5km/h 7mph /  11.3km/h 60% 0in /  0.0mm
13:04 62.2 °F /  16.8 °C 48.2 °F /  9 °C 29.8in /  1007.6hPa SO 3.5mph /  5.6km/h 7mph /  11.3km/h 60% 0in /  0.0mm
13:09 62.4 °F /  16.9 °C 48.4 °F /  9.1 °C 29.8in /  1007.7hPa NE 3.6mph /  5.8km/h 6.2mph /  10km/h 60.2% 0in /  0.0mm
13:14 63 °F /  17.2 °C 48.9 °F /  9.4 °C 29.8in /  1007.7hPa ESE 2.8mph /  4.5km/h 7.4mph /  11.9km/h 60% 0in /  0.0mm
13:19 63.1 °F /  17.3 °C 48.7 °F /  9.3 °C 29.8in /  1007.7hPa SE 2.4mph /  3.9km/h 7mph /  11.3km/h 59.3% 0in /  0.0mm
13:24 63.5 °F /  17.5 °C 49.1 °F /  9.5 °C 29.8in /  1007.7hPa ENE 2.4mph /  3.9km/h 6mph /  9.7km/h 59.5% 0in /  0.0mm
13:29 63.9 °F /  17.7 °C 48.9 °F /  9.4 °C 29.8in /  1007.7hPa SSE 2.4mph /  3.9km/h 7.4mph /  11.9km/h 58.4% 0in /  0.0mm
13:34 64 °F /  17.8 °C 48.7 °F /  9.3 °C 29.8in /  1007.7hPa SSE 3.2mph /  5.1km/h 7mph /  11.3km/h 57.2% 0in /  0.0mm
13:39 64.2 °F /  17.9 °C 48.2 °F /  9 °C 29.8in /  1007.7hPa Oeste 3.6mph /  5.8km/h 7mph /  11.3km/h 56% 0in /  0.0mm
13:44 64.2 °F /  17.9 °C 48.2 °F /  9 °C 29.8in /  1007.4hPa SO 3.2mph /  5.2km/h 9.7mph /  15.6km/h 55.9% 0in /  0.0mm
13:49 64.4 °F /  18 °C 48.2 °F /  9 °C 29.8in /  1007.4hPa Sur 3.1mph /  5km/h 10mph /  16.1km/h 55.8% 0in /  0.0mm
13:54 64.9 °F /  18.3 °C 48.2 °F /  9 °C 29.8in /  1007.4hPa SSE 3.4mph /  5.5km/h 7.4mph /  11.9km/h 54.4% 0in /  0.0mm
13:59 65.5 °F /  18.6 °C 47.5 °F /  8.6 °C 29.7in /  1007.3hPa Sur 3.6mph /  5.8km/h 7mph /  11.3km/h 52.2% 0in /  0.0mm
14:04 65.7 °F /  18.7 °C 47.1 °F /  8.4 °C 29.7in /  1007.3hPa SE 3.9mph /  6.2km/h 8.1mph /  13km/h 51.3% 0in /  0.0mm
14:09 65.8 °F /  18.8 °C 46.9 °F /  8.3 °C 29.7in /  1007.3hPa SO 4mph /  6.5km/h 8.5mph /  13.7km/h 50.5% 0in /  0.0mm
14:14 65.8 °F /  18.8 °C 47.1 °F /  8.4 °C 29.7in /  1007.0hPa OSO 4.2mph /  6.8km/h 9mph /  14.5km/h 51% 0in /  0.0mm
14:19 65.8 °F /  18.8 °C 47.1 °F /  8.4 °C 29.7in /  1007.0hPa SO 4.3mph /  6.9km/h 9.2mph /  14.8km/h 51.1% 0in /  0.0mm
14:24 66 °F /  18.9 °C 46.8 °F /  8.2 °C 29.7in /  1007.0hPa ESE 3.9mph /  6.2km/h 9mph /  14.5km/h 49.8% 0in /  0.0mm
14:29 66.4 °F /  19.1 °C 47.1 °F /  8.4 °C 29.7in /  1006.8hPa ESE 3.6mph /  5.8km/h 7.4mph /  11.9km/h 49.9% 0in /  0.0mm
14:34 66.6 °F /  19.2 °C 46.4 °F /  8 °C 29.7in /  1006.8hPa Sur 4mph /  6.5km/h 11.2mph /  18km/h 48.2% 0in /  0.0mm
14:39 66.7 °F /  19.3 °C 45.3 °F /  7.4 °C 29.7in /  1006.8hPa SSO 4.3mph /  6.9km/h 12mph /  19.3km/h 46.2% 0in /  0.0mm
14:44 66.9 °F /  19.4 °C 44.4 °F /  6.9 °C 29.7in /  1006.8hPa SSO 5.6mph /  9km/h 12mph /  19.3km/h 44.3% 0in /  0.0mm
14:49 66.9 °F /  19.4 °C 44.4 °F /  6.9 °C 29.7in /  1006.8hPa SSO 6.2mph /  10km/h 10mph /  16.1km/h 44.1% 0in /  0.0mm
14:54 67.3 °F /  19.6 °C 44.4 °F /  6.9 °C 29.7in /  1006.8hPa SO 5.7mph /  9.1km/h 8.5mph /  13.7km/h 43.7% 0in /  0.0mm
14:59 67.5 °F /  19.7 °C 44.6 °F /  7 °C 29.7in /  1006.6hPa OSO 5.4mph /  8.7km/h 9mph /  14.5km/h 43.5% 0in /  0.0mm
15:04 67.6 °F /  19.8 °C 44.8 °F /  7.1 °C 29.7in /  1006.6hPa OSO 4.4mph /  7.1km/h 8.5mph /  13.7km/h 43.8% 0in /  0.0mm
15:09 67.8 °F /  19.9 °C 44.6 °F /  7 °C 29.7in /  1006.7hPa SO 4mph /  6.5km/h 13.5mph /  21.7km/h 43.3% 0in /  0.0mm
15:14 67.6 °F /  19.8 °C 44.2 °F /  6.8 °C 29.7in /  1006.7hPa SO 5.5mph /  8.8km/h 14mph /  22.5km/h 42.9% 0in /  0.0mm
15:19 67.6 °F /  19.8 °C 43.9 °F /  6.6 °C 29.7in /  1006.7hPa SO 6.2mph /  10km/h 12mph /  19.3km/h 42.3% 0in /  0.0mm
15:24 67.6 °F /  19.8 °C 43.7 °F /  6.5 °C 29.7in /  1006.7hPa SO 6.3mph /  10.2km/h 12.7mph /  20.4km/h 42% 0in /  0.0mm
15:29 67.5 °F /  19.7 °C 43.5 °F /  6.4 °C 29.7in /  1006.6hPa SO 6.4mph /  10.3km/h 13mph /  20.9km/h 42% 0in /  0.0mm
15:34 67.3 °F /  19.6 °C 43.7 °F /  6.5 °C 29.7in /  1006.6hPa SO 7.1mph /  11.4km/h 13mph /  20.9km/h 42.5% 0in /  0.0mm
15:39 67.3 °F /  19.6 °C 43.9 °F /  6.6 °C 29.7in /  1006.8hPa OSO 7.4mph /  11.9km/h 12mph /  19.3km/h 42.9% 0in /  0.0mm
15:44 67.3 °F /  19.6 °C 44.1 °F /  6.7 °C 29.7in /  1006.8hPa SO 6.6mph /  10.6km/h 10mph /  16.1km/h 43% 0in /  0.0mm
15:49 67.3 °F /  19.6 °C 44.2 °F /  6.8 °C 29.7in /  1006.8hPa OSO 6.2mph /  10km/h 10mph /  16.1km/h 43.4% 0in /  0.0mm
15:54 67.3 °F /  19.6 °C 43.7 °F /  6.5 °C 29.7in /  1006.8hPa SO 5.5mph /  8.9km/h 9.7mph /  15.6km/h 42.5% 0in /  0.0mm
15:59 67.3 °F /  19.6 °C 44.1 °F /  6.7 °C 29.7in /  1006.8hPa SO 5.2mph /  8.4km/h 10mph /  16.1km/h 43% 0in /  0.0mm
16:04 67.3 °F /  19.6 °C 43.7 °F /  6.5 °C 29.7in /  1006.8hPa SO 5.2mph /  8.4km/h 10.4mph /  16.7km/h 42.4% 0in /  0.0mm
16:09 67.3 °F /  19.6 °C 43.9 °F /  6.6 °C 29.7in /  1006.8hPa OSO 5.2mph /  8.4km/h 10.7mph /  17.2km/h 42.9% 0in /  0.0mm
16:14 67.3 °F /  19.6 °C 44.1 °F /  6.7 °C 29.7in /  1006.8hPa SO 5.2mph /  8.4km/h 11mph /  17.7km/h 43% 0in /  0.0mm
16:19 67.3 °F /  19.6 °C 44.1 °F /  6.7 °C 29.7in /  1006.8hPa SO 5.2mph /  8.4km/h 10.7mph /  17.2km/h 43% 0in /  0.0mm
16:24 67.3 °F /  19.6 °C 43.9 °F /  6.6 °C 29.7in /  1006.8hPa SSO 5.3mph /  8.6km/h 12.3mph /  19.8km/h 42.8% 0in /  0.0mm
16:29 67.3 °F /  19.6 °C 43.3 °F /  6.3 °C 29.7in /  1006.7hPa SO 5.4mph /  8.7km/h 13mph /  20.9km/h 42% 0in /  0.0mm
16:34 67.3 °F /  19.6 °C 43.3 °F /  6.3 °C 29.7in /  1006.7hPa OSO 5.7mph /  9.2km/h 12.3mph /  19.8km/h 41.9% 0in /  0.0mm
16:39 67.3 °F /  19.6 °C 43.2 °F /  6.2 °C 29.7in /  1006.8hPa OSO 5.9mph /  9.5km/h 13mph /  20.9km/h 41.6% 0in /  0.0mm
16:44 67.3 °F /  19.6 °C 43.9 °F /  6.6 °C 29.7in /  1006.8hPa OSO 6.2mph /  10km/h 10mph /  16.1km/h 42.7% 0in /  0.0mm
16:49 67.1 °F /  19.5 °C 43.9 °F /  6.6 °C 29.7in /  1006.8hPa SO 6.4mph /  10.3km/h 10.4mph /  16.7km/h 43.2% 0in /  0.0mm
16:54 66.9 °F /  19.4 °C 44.2 °F /  6.8 °C 29.7in /  1006.9hPa OSO 5.3mph /  8.5km/h 10mph /  16.1km/h 44% 0in /  0.0mm
16:59 66.9 °F /  19.4 °C 44.2 °F /  6.8 °C 29.7in /  1006.9hPa OSO 4.7mph /  7.6km/h 10mph /  16.1km/h 44% 0in /  0.0mm
17:04 66.9 °F /  19.4 °C 44.8 °F /  7.1 °C 29.7in /  1006.9hPa OSO 4.4mph /  7.1km/h 9mph /  14.5km/h 44.9% 0in /  0.0mm
17:09 66.9 °F /  19.4 °C 44.8 °F /  7.1 °C 29.7in /  1007.1hPa SO 4.3mph /  6.9km/h 9.2mph /  14.8km/h 44.8% 0in /  0.0mm
17:14 66.9 °F /  19.4 °C 45 °F /  7.2 °C 29.7in /  1007.1hPa OSO 4.6mph /  7.4km/h 9.2mph /  14.8km/h 45% 0in /  0.0mm
17:19 66.9 °F /  19.4 °C 44.8 °F /  7.1 °C 29.7in /  1007.1hPa SO 4.7mph /  7.6km/h 9.2mph /  14.8km/h 44.8% 0in /  0.0mm
17:24 66.9 °F /  19.4 °C 45 °F /  7.2 °C 29.7in /  1007.3hPa SO 5mph /  8.1km/h 9mph /  14.5km/h 45.1% 0in /  0.0mm
17:29 67.1 °F /  19.5 °C 45.3 °F /  7.4 °C 29.7in /  1007.3hPa SO 5.2mph /  8.4km/h 8.1mph /  13km/h 45.7% 0in /  0.0mm
17:34 66.9 °F /  19.4 °C 45.9 °F /  7.7 °C 29.7in /  1007.3hPa SO 4.8mph /  7.8km/h 8mph /  12.9km/h 46.9% 0in /  0.0mm
17:39 66.7 °F /  19.3 °C 46.2 °F /  7.9 °C 29.8in /  1007.6hPa SO 4.7mph /  7.6km/h 7.6mph /  12.2km/h 47.8% 0in /  0.0mm
17:44 66.6 °F /  19.2 °C 46.6 °F /  8.1 °C 29.8in /  1007.6hPa Oeste 4.2mph /  6.8km/h 8.1mph /  13km/h 48.4% 0in /  0.0mm
17:49 66.6 °F /  19.2 °C 47.5 °F /  8.6 °C 29.8in /  1007.6hPa ONO 4mph /  6.5km/h 15.6mph /  25.1km/h 50.5% 0in /  0.0mm
17:54 65.8 °F /  18.8 °C 48.6 °F /  9.2 °C 29.8in /  1007.8hPa NO 4.8mph /  7.7km/h 18.5mph /  29.8km/h 53.7% 0in /  0.0mm
17:59 64.4 °F /  18 °C 48.6 °F /  9.2 °C 29.8in /  1007.8hPa ONO 5.2mph /  8.4km/h 19mph /  30.6km/h 56.3% 0in /  0.0mm
18:04 63.5 °F /  17.5 °C 48.6 °F /  9.2 °C 29.8in /  1007.8hPa NO 8.3mph /  13.3km/h 15mph /  24.1km/h 58.2% 0in /  0.0mm
18:09 63 °F /  17.2 °C 48.9 °F /  9.4 °C 29.8in /  1008.0hPa ONO 9.7mph /  15.6km/h 14mph /  22.5km/h 60.3% 0in /  0.0mm
18:14 62.6 °F /  17 °C 49.1 °F /  9.5 °C 29.8in /  1008.0hPa ONO 7.8mph /  12.6km/h 10.4mph /  16.7km/h 61% 0in /  0.0mm
18:19 62.4 °F /  16.9 °C 48.6 °F /  9.2 °C 29.8in /  1008.0hPa ONO 6.9mph /  11.1km/h 12.7mph /  20.4km/h 60.3% 0in /  0.0mm
18:24 62.4 °F /  16.9 °C 48 °F /  8.9 °C 29.8in /  1008.2hPa ONO 6.6mph /  10.6km/h 13mph /  20.9km/h 59.3% 0in /  0.0mm
18:29 62.4 °F /  16.9 °C 47.7 °F /  8.7 °C 29.8in /  1008.2hPa ONO 6.4mph /  10.3km/h 9mph /  14.5km/h 58.2% 0in /  0.0mm
18:34 62.6 °F /  17 °C 47.5 °F /  8.6 °C 29.8in /  1008.2hPa ONO 4.8mph /  7.8km/h 7mph /  11.3km/h 57.8% 0in /  0.0mm
18:39 62.8 °F /  17.1 °C 47.5 °F /  8.6 °C 29.8in /  1008.4hPa Oeste 4mph /  6.5km/h 7mph /  11.3km/h 57.3% 0in /  0.0mm
18:44 62.8 °F /  17.1 °C 46.9 °F /  8.3 °C 29.8in /  1008.4hPa Oeste 3.7mph /  6km/h 6.9mph /  11.1km/h 56.4% 0in /  0.0mm
18:49 62.8 °F /  17.1 °C 46.8 °F /  8.2 °C 29.8in /  1008.4hPa Oeste 3.6mph /  5.8km/h 7mph /  11.3km/h 56% 0in /  0.0mm
18:54 62.6 °F /  17 °C 46.8 °F /  8.2 °C 29.8in /  1008.5hPa Oeste 3.6mph /  5.8km/h 7mph /  11.3km/h 56% 0in /  0.0mm
18:59 62.4 °F /  16.9 °C 46.6 °F /  8.1 °C 29.8in /  1008.5hPa OSO 3.6mph /  5.8km/h 5mph /  8km/h 56.2% 0in /  0.0mm
19:04 62.4 °F /  16.9 °C 46.9 °F /  8.3 °C 29.8in /  1008.5hPa OSO 2.7mph /  4.4km/h 5mph /  8km/h 57% 0in /  0.0mm
19:09 62.2 °F /  16.8 °C 46.6 °F /  8.1 °C 29.8in /  1008.6hPa Oeste 2.4mph /  3.9km/h 6.9mph /  11.1km/h 56.4% 0in /  0.0mm
19:14 62.2 °F /  16.8 °C 46.4 °F /  8 °C 29.8in /  1008.6hPa Oeste 3.2mph /  5.1km/h 7mph /  11.3km/h 56.4% 0in /  0.0mm
19:19 62.1 °F /  16.7 °C 46.6 °F /  8.1 °C 29.8in /  1008.6hPa OSO 3.6mph /  5.8km/h 7mph /  11.3km/h 57% 0in /  0.0mm
19:24 62.1 °F /  16.7 °C 46.9 °F /  8.3 °C 29.8in /  1008.7hPa SO 3.9mph /  6.2km/h 7mph /  11.3km/h 57.8% 0in /  0.0mm
19:29 62.1 °F /  16.7 °C 46.9 °F /  8.3 °C 29.8in /  1008.7hPa Sur 4mph /  6.5km/h 5.2mph /  8.4km/h 58% 0in /  0.0mm
19:34 61.9 °F /  16.6 °C 46.8 °F /  8.2 °C 29.8in /  1008.7hPa SSO 3.4mph /  5.5km/h 7.4mph /  11.9km/h 57.9% 0in /  0.0mm
19:39 61.9 °F /  16.6 °C 46.4 °F /  8 °C 29.8in /  1008.9hPa SSO 3.1mph /  5km/h 7mph /  11.3km/h 56.8% 0in /  0.0mm
19:44 62.1 °F /  16.7 °C 46.8 °F /  8.2 °C 29.8in /  1008.9hPa SE 3.4mph /  5.5km/h 7mph /  11.3km/h 57.3% 0in /  0.0mm
19:49 62.1 °F /  16.7 °C 47.1 °F /  8.4 °C 29.8in /  1008.9hPa Sur 3.6mph /  5.8km/h 3.6mph /  5.8km/h 58% 0in /  0.0mm
19:54 62.1 °F /  16.7 °C 47.1 °F /  8.4 °C 29.8in /  1009.1hPa Sur 2.4mph /  3.8km/h 4mph /  6.4km/h 58% 0in /  0.0mm
19:59 62.1 °F /  16.7 °C 47.5 °F /  8.6 °C 29.8in /  1009.1hPa SE 1.8mph /  2.9km/h 5.8mph /  9.3km/h 58.9% 0in /  0.0mm
20:04 61.9 °F /  16.6 °C 47.5 °F /  8.6 °C 29.8in /  1009.1hPa SSE 2.6mph /  4.2km/h 6.9mph /  11.1km/h 59.1% 0in /  0.0mm
20:09 61.7 °F /  16.5 °C 47.7 °F /  8.7 °C 29.8in /  1009.2hPa Sur 2.9mph /  4.7km/h 7mph /  11.3km/h 60% 0in /  0.0mm
20:14 61.5 °F /  16.4 °C 47.5 °F /  8.6 °C 29.8in /  1009.2hPa SSE 3mph /  4.9km/h 6mph /  9.7km/h 60% 0in /  0.0mm
20:19 61.5 °F /  16.4 °C 47.5 °F /  8.6 °C 29.8in /  1009.2hPa SSE 3.1mph /  5km/h 6mph /  9.7km/h 60% 0in /  0.0mm
20:24 61.5 °F /  16.4 °C 47.5 °F /  8.6 °C 29.8in /  1009.3hPa Sur 3.4mph /  5.5km/h 5.2mph /  8.4km/h 59.9% 0in /  0.0mm
20:29 61.5 °F /  16.4 °C 46.9 °F /  8.3 °C 29.8in /  1009.3hPa Sur 3.6mph /  5.8km/h 5.2mph /  8.4km/h 58.8% 0in /  0.0mm
20:34 61.9 °F /  16.6 °C 46.9 °F /  8.3 °C 29.8in /  1009.3hPa SSO 3.3mph /  5.3km/h 5.9mph /  9.5km/h 58% 0in /  0.0mm
20:39 61.9 °F /  16.6 °C 46.6 °F /  8.1 °C 29.8in /  1009.5hPa SSO 3.1mph /  5km/h 6mph /  9.7km/h 57.2% 0in /  0.0mm
20:44 62.1 °F /  16.7 °C 46.6 °F /  8.1 °C 29.8in /  1009.5hPa SO 3.1mph /  5km/h 5.8mph /  9.3km/h 57% 0in /  0.0mm
20:49 62.1 °F /  16.7 °C 46.6 °F /  8.1 °C 29.8in /  1009.5hPa OSO 3.1mph /  5km/h 6mph /  9.7km/h 57.1% 0in /  0.0mm
20:54 61.9 °F /  16.6 °C 47.7 °F /  8.7 °C 29.8in /  1009.5hPa NO 2.4mph /  3.8km/h 3.6mph /  5.8km/h 59.8% 0in /  0.0mm
20:59 61.5 °F /  16.4 °C 48.2 °F /  9 °C 29.8in /  1009.5hPa NO 2mph /  3.2km/h 4mph /  6.4km/h 61.6% 0in /  0.0mm
21:04 61.2 °F /  16.2 °C 48 °F /  8.9 °C 29.8in /  1009.5hPa NNE 2mph /  3.2km/h 4mph /  6.4km/h 62.3% 0in /  0.0mm
21:09 60.8 °F /  16 °C 48.4 °F /  9.1 °C 29.8in /  1009.5hPa Este 2mph /  3.2km/h 5.9mph /  9.5km/h 63.6% 0in /  0.0mm
21:14 60.4 °F /  15.8 °C 48.2 °F /  9 °C 29.8in /  1009.5hPa ESE 2.8mph /  4.5km/h 6mph /  9.7km/h 64.1% 0in /  0.0mm
21:19 60.3 °F /  15.7 °C 48.4 °F /  9.1 °C 29.8in /  1009.5hPa SE 3.1mph /  5km/h 4.6mph /  7.4km/h 65% 0in /  0.0mm
21:24 60.3 °F /  15.7 °C 48.4 °F /  9.1 °C 29.8in /  1009.5hPa SSE 3mph /  4.8km/h 4.7mph /  7.6km/h 65% 0in /  0.0mm
21:29 60.1 °F /  15.6 °C 48.4 °F /  9.1 °C 29.8in /  1009.5hPa SSO 2.7mph /  4.4km/h 5mph /  8km/h 65% 0in /  0.0mm
21:34 60.3 °F /  15.7 °C 48.6 °F /  9.2 °C 29.8in /  1009.5hPa OSO 3mph /  4.9km/h 5mph /  8km/h 65.2% 0in /  0.0mm
21:39 60.3 °F /  15.7 °C 48.9 °F /  9.4 °C 29.8in /  1009.7hPa Oeste 3.1mph /  5km/h 5mph /  8km/h 66.1% 0in /  0.0mm
21:44 60.3 °F /  15.7 °C 48.6 °F /  9.2 °C 29.8in /  1009.7hPa Oeste 2.4mph /  3.8km/h 3mph /  4.8km/h 65.5% 0in /  0.0mm
21:49 60.1 °F /  15.6 °C 48.6 °F /  9.2 °C 29.8in /  1009.7hPa Oeste 2mph /  3.2km/h 3.6mph /  5.8km/h 65.7% 0in /  0.0mm
21:54 60.3 °F /  15.7 °C 48.7 °F /  9.3 °C 29.8in /  1009.8hPa OSO 1.6mph /  2.6km/h 4mph /  6.4km/h 65.7% 0in /  0.0mm
21:59 60.3 °F /  15.7 °C 48.4 °F /  9.1 °C 29.8in /  1009.8hPa OSO 1.4mph /  2.2km/h 5.4mph /  8.7km/h 65% 0in /  0.0mm
22:04 60.3 °F /  15.7 °C 48.7 °F /  9.3 °C 29.8in /  1009.8hPa OSO 2.4mph /  3.9km/h 6mph /  9.7km/h 65.8% 0in /  0.0mm
22:09 60.3 °F /  15.7 °C 48.6 °F /  9.2 °C 29.8in /  1010.1hPa SO 2.9mph /  4.7km/h 9.7mph /  15.6km/h 65.4% 0in /  0.0mm
22:14 60.3 °F /  15.7 °C 48 °F /  8.9 °C 29.8in /  1010.1hPa SO 3.6mph /  5.8km/h 12.5mph /  20.1km/h 64.2% 0in /  0.0mm
22:19 60.3 °F /  15.7 °C 47.7 °F /  8.7 °C 29.8in /  1010.1hPa SO 4mph /  6.5km/h 13mph /  20.9km/h 63% 0in /  0.0mm
22:24 60.3 °F /  15.7 °C 47.7 °F /  8.7 °C 29.8in /  1010.1hPa SO 5.9mph /  9.5km/h 13mph /  20.9km/h 63% 0in /  0.0mm
22:29 60.3 °F /  15.7 °C 47.8 °F /  8.8 °C 29.8in /  1010.1hPa OSO 6.9mph /  11.1km/h 12mph /  19.3km/h 63.9% 0in /  0.0mm
22:34 59.9 °F /  15.5 °C 48 °F /  8.9 °C 29.8in /  1010.1hPa SO 6.6mph /  10.6km/h 12.7mph /  20.4km/h 65% 0in /  0.0mm
22:39 59.5 °F /  15.3 °C 48.2 °F /  9 °C 29.8in /  1010.3hPa SO 6.4mph /  10.3km/h 13mph /  20.9km/h 66% 0in /  0.0mm
22:44 59.4 °F /  15.2 °C 47.8 °F /  8.8 °C 29.8in /  1010.3hPa OSO 6.4mph /  10.3km/h 13mph /  20.9km/h 65.7% 0in /  0.0mm
22:49 59.4 °F /  15.2 °C 47.7 °F /  8.7 °C 29.8in /  1010.3hPa OSO 6.4mph /  10.3km/h 12mph /  19.3km/h 65% 0in /  0.0mm
22:54 59.4 °F /  15.2 °C 47.7 °F /  8.7 °C 29.8in /  1010.3hPa SO 6.3mph /  10.1km/h 10.4mph /  16.7km/h 65% 0in /  0.0mm
22:59 59.4 °F /  15.2 °C 47.3 °F /  8.5 °C 29.8in /  1010.3hPa SO 6.2mph /  10km/h 12.7mph /  20.4km/h 64.4% 0in /  0.0mm
23:04 59.4 °F /  15.2 °C 47.3 °F /  8.5 °C 29.8in /  1010.3hPa SO 6.2mph /  10km/h 13mph /  20.9km/h 64.3% 0in /  0.0mm
23:09 59.4 °F /  15.2 °C 47.7 °F /  8.7 °C 29.8in /  1010.6hPa SO 6.2mph /  10km/h 11mph /  17.7km/h 65% 0in /  0.0mm
23:14 59.4 °F /  15.2 °C 47.5 °F /  8.6 °C 29.8in /  1010.6hPa SO 6mph /  9.7km/h 12.7mph /  20.4km/h 64.7% 0in /  0.0mm
23:19 59.4 °F /  15.2 °C 47.3 °F /  8.5 °C 29.8in /  1010.6hPa SO 5.9mph /  9.5km/h 13mph /  20.9km/h 64.2% 0in /  0.0mm
23:24 59.4 °F /  15.2 °C 47.5 °F /  8.6 °C 29.8in /  1010.6hPa SO 5.6mph /  9km/h 12.7mph /  20.4km/h 64.8% 0in /  0.0mm
23:29 59.2 °F /  15.1 °C 47.5 °F /  8.6 °C 29.8in /  1010.6hPa SO 5.4mph /  8.7km/h 13mph /  20.9km/h 65% 0in /  0.0mm
23:34 59 °F /  15 °C 47.3 °F /  8.5 °C 29.8in /  1010.6hPa OSO 6.4mph /  10.3km/h 13mph /  20.9km/h 65.3% 0in /  0.0mm
23:39 58.8 °F /  14.9 °C 47.5 °F /  8.6 °C 29.9in /  1010.8hPa OSO 6.9mph /  11.1km/h 10mph /  16.1km/h 66% 0in /  0.0mm
23:44 58.8 °F /  14.9 °C 47.8 °F /  8.8 °C 29.9in /  1010.8hPa OSO 6.2mph /  10km/h 9.2mph /  14.8km/h 67% 0in /  0.0mm
23:49 58.6 °F /  14.8 °C 48 °F /  8.9 °C 29.9in /  1010.8hPa OSO 5.9mph /  9.5km/h 10mph /  16.1km/h 67.9% 0in /  0.0mm
23:54 58.5 °F /  14.7 °C 48.2 °F /  9 °C 29.9in /  1010.8hPa OSO 5.4mph /  8.7km/h 10.4mph /  16.7km/h 68.9% 0in /  0.0mm
23:59 58.5 °F /  14.7 °C 48.4 °F /  9.1 °C 29.9in /  1010.8hPa SO 5.2mph /  8.4km/h 9mph /  14.5km/h 69% 0in /  0.0mm
Murcia-Puente Tocinos, España
Compliments of Weather Underground - 2.75 mb

La estación de MeteoMurcia.com, publica sus datos en los siguientes proyectos:

Weather Underground PWS IMURCIAP2 Meteoclimatic www.awekas.at

W3Counter
Web Analytics